• Join FlightAware (Why Join?)
  • Login
  • US Flag 
04:10AM EST


 

Airport Tracker/Info


-or-


 

Live Flight TrackerFlight Track Log ✈ SET1696 ✈ 20-Dec-2013 ✈ RJSF / FKS - RJOO / ITM

Flight Track Log - Related Links

Times and Time Zones

All times are in EST time to prevent confusion due to time zone crossing. See the SET1696 flight status page for this flight to view local times or setup timezone preferences in your user account.

Time Position Orientation Groundspeed Altitude Reporting Facility
EST Latitude Longitude Course Direction KTS MPH feet Rate Location/Type
02:39AM 37.1195 140.1936 240° Southwest  Level Estimated
02:40AM 37.0834 140.1148 240° Southwest  Level Estimated
02:41AM 37.0473 140.0360 240° Southwest  Level Estimated
02:42AM 37.0111 139.9573 240° Southwest  Level Estimated
02:43AM 36.9749 139.8786 240° Southwest  Level Estimated
02:44AM 36.9386 139.8001 240° Southwest  Level Estimated
02:45AM 36.9022 139.7216 240° Southwest  Level Estimated
02:46AM 36.8659 139.6432 240° Southwest  Level Estimated
02:47AM 36.8294 139.5648 240° Southwest  Level Estimated
02:48AM 36.7929 139.4866 240° Southwest  Level Estimated
02:49AM 36.7564 139.4084 240° Southwest  Level Estimated
02:50AM 36.7198 139.3303 240° Southwest  Level Estimated
02:51AM 36.6831 139.2522 240° Southwest  Level Estimated
02:52AM 36.6464 139.1743 240° Southwest  Level Estimated
02:53AM 36.6097 139.0964 240° Southwest  Level Estimated
02:54AM 36.5729 139.0186 240° Southwest  Level Estimated
02:55AM 36.5360 138.9408 239° Southwest  Level Estimated
02:56AM 36.4991 138.8631 239° Southwest  Level Estimated
02:57AM 36.4622 138.7856 239° Southwest  Level Estimated
02:58AM 36.4252 138.7080 239° Southwest  Level Estimated
02:59AM 36.3881 138.6306 239° Southwest  Level Estimated
03:00AM 36.3510 138.5532 239° Southwest  Level Estimated
03:01AM 36.3139 138.4759 239° Southwest  Level Estimated
03:02AM 36.2767 138.3987 239° Southwest  Level Estimated
03:03AM 36.2394 138.3215 239° Southwest  Level Estimated
03:04AM 36.2021 138.2445 239° Southwest  Level Estimated
03:05AM 36.1648 138.1675 239° Southwest  Level Estimated
03:06AM 36.1274 138.0905 239° Southwest  Level Estimated
03:07AM 36.0899 138.0137 239° Southwest  Level Estimated
03:08AM 36.0524 137.9369 239° Southwest  Level Estimated
03:09AM 36.0149 137.8602 239° Southwest  Level Estimated
03:10AM 35.9773 137.7835 239° Southwest  Level Estimated
03:11AM 35.9397 137.7070 239° Southwest  Level Estimated
03:12AM 35.9020 137.6305 239° Southwest  Level Estimated
03:13AM 35.8642 137.5541 239° Southwest  Level Estimated
03:14AM 35.8265 137.4777 239° Southwest  Level Estimated
03:15AM 35.7886 137.4014 239° Southwest  Level Estimated
03:16AM 35.7507 137.3252 239° Southwest  Level Estimated
03:17AM 35.7128 137.2491 238° Southwest  Level Estimated
03:18AM 35.6748 137.1730 238° Southwest  Level Estimated
03:19AM 35.6368 137.0971 238° Southwest  Level Estimated
03:20AM 35.5987 137.0212 238° Southwest  Level Estimated
03:21AM 35.5606 136.9453 238° Southwest  Level Estimated
03:22AM 35.5224 136.8696 238° Southwest  Level Estimated
03:23AM 35.4842 136.7939 238° Southwest  Level Estimated
03:24AM 35.4459 136.7182 238° Southwest  Level Estimated
03:25AM 35.4076 136.6427 238° Southwest  Level Estimated
03:26AM 35.3693 136.5672 238° Southwest  Level Estimated
03:27AM 35.3309 136.4918 238° Southwest  Level Estimated
03:28AM 35.2924 136.4164 238° Southwest  Level Estimated
03:29AM 35.2539 136.3412 238° Southwest  Level Estimated
03:30AM 35.2154 136.2660 238° Southwest  Level Estimated
03:31AM 35.1768 136.1909 238° Southwest  Level Estimated
03:32AM 35.1381 136.1158 238° Southwest  Level Estimated
03:33AM 35.0995 136.0408 238° Southwest  Level Estimated
03:34AM 35.0607 135.9659 238° Southwest  Level Estimated
03:35AM 35.0219 135.8911 238° Southwest  Level Estimated
03:36AM 34.9831 135.8163 238° Southwest  Level Estimated
03:37AM 34.9443 135.7416 238° Southwest  Level Estimated
03:38AM 34.9053 135.6670 238° Southwest  Level Estimated
03:39AM 34.8664 135.5925 238° Southwest  Level Estimated
03:40AM 34.8274 135.5180 237° Southwest  Level Estimated
03:41AM 34.7883 135.4436 237° Southwest  Level Estimated
03:42AM 34.7855 135.4382 237° Southwest  Level Estimated
03:43AM 34.7855 135.4382 141° Southeast  Level Estimated
03:44AM 34.7855 135.4382 141° Southeast  Level Estimated
03:45AM 34.7855 135.4382 141° Southeast  Level Estimated
03:46AM 34.7855 135.4382 141° Southeast  Level Estimated
03:47AM 34.7855 135.4382 141° Southeast  Level Estimated
03:48AM 34.7855 135.4382 141° Southeast  Level Estimated
03:49AM 34.7855 135.4382 141° Southeast  Level Estimated
03:50AM 34.7855 135.4382 141° Southeast  Level Estimated
03:51AM 34.7855 135.4382 141° Southeast  Level Estimated
03:52AM 34.7855 135.4382 141° Southeast  Level Estimated
03:53AM 34.7855 135.4382 141° Southeast  Level Estimated